Time;durP1;ratioP1;P1;durP2;ratioP2;P2;SDS_P1;SDS_P2;PMS_P1;PMS_P2;Temp;Humidity;BMP_temperature;BMP_pressure;BME280_temperature;BME280_humidity;BME280_pressure;Samples;Min_cycle;Max_cycle;Signal;HPM_P1;HPM_P2
2023/07/13 00:01:03;;;;;;;;;;;24.40;58.10;;;;;;4171918;28;19936;-50
2023/07/13 00:03:43;;;;;;;;;;;24.40;58.10;;;;;;4171099;28;19932;-47
2023/07/13 00:06:32;;;;;;;;;;;24.30;58.10;;;;;;4171561;28;20055;-48
2023/07/13 00:09:13;;;;;;;;;;;24.40;58.20;;;;;;4172011;28;19932;-50
2023/07/13 00:11:55;;;;;;;;;;;24.30;58.10;;;;;;4180827;28;20398;-47
2023/07/13 00:14:36;;;;;;;;;;;24.30;58.20;;;;;;4187928;28;19932;-46
2023/07/13 00:17:17;;;;;;;;;;;24.30;58.10;;;;;;4177433;28;20071;-46
2023/07/13 00:19:58;;;;;;;;;;;24.30;58.10;;;;;;4171096;28;20066;-46
2023/07/13 00:22:40;;;;;;;;;;;24.30;58.20;;;;;;4179913;28;19940;-46
2023/07/13 00:25:21;;;;;;;;;;;24.30;58.10;;;;;;4171199;28;20003;-49
2023/07/13 00:28:02;;;;;;;;;;;24.20;58.10;;;;;;4184850;28;20431;-49
2023/07/13 00:30:44;;;;;;;;;;;24.20;58.10;;;;;;4181734;28;20387;-50
2023/07/13 00:33:25;;;;;;;;;;;24.20;58.10;;;;;;4167208;28;19947;-50
2023/07/13 00:36:06;;;;;;;;;;;24.20;58.10;;;;;;4168494;28;19935;-51
2023/07/13 00:38:48;;;;;;;;;;;24.20;58.10;;;;;;4170912;28;19986;-46
2023/07/13 00:41:29;;;;;;;;;;;24.20;58.10;;;;;;4170135;28;19932;-47
2023/07/13 00:44:13;;;;;;;;;;;24.20;58.10;;;;;;4170875;28;19932;-48
2023/07/13 00:46:55;;;;;;;;;;;24.20;58.10;;;;;;4151589;28;19936;-47
2023/07/13 00:49:37;;;;;;;;;;;24.10;58.20;;;;;;4155130;28;20051;-47
2023/07/13 00:52:18;;;;;;;;;;;24.20;58.30;;;;;;4153372;28;20040;-50
2023/07/13 00:55:00;;;;;;;;;;;24.10;58.20;;;;;;4139732;28;19936;-49
2023/07/13 00:57:41;;;;;;;;;;;24.10;58.30;;;;;;4167181;28;19932;-53
2023/07/13 01:00:23;;;;;;;;;;;24.10;59.10;;;;;;4153901;28;19951;-46
2023/07/13 01:03:05;;;;;;;;;;;24.10;58.40;;;;;;4171018;28;19931;-50
2023/07/13 01:05:48;;;;;;;;;;;24.10;58.50;;;;;;4170710;28;19936;-50
2023/07/13 01:08:28;;;;;;;;;;;24.10;58.50;;;;;;4162440;28;19932;-49
2023/07/13 01:11:11;;;;;;;;;;;24.10;58.60;;;;;;4165322;28;20017;-47
2023/07/13 01:13:53;;;;;;;;;;;24.10;58.60;;;;;;4167946;28;19932;-51
2023/07/13 01:16:36;;;;;;;;;;;24.10;58.70;;;;;;4158642;28;19932;-46
2023/07/13 01:19:25;;;;;;;;;;;24.10;58.70;;;;;;4162181;28;20011;-52
2023/07/13 01:22:11;;;;;;;;;;;24.10;58.80;;;;;;4168091;28;19932;-51
2023/07/13 01:24:52;;;;;;;;;;;24.10;58.80;;;;;;4170127;28;19931;-45
2023/07/13 01:27:34;;;;;;;;;;;24.10;58.90;;;;;;4169367;28;20078;-46
2023/07/13 01:30:16;;;;;;;;;;;24.00;58.80;;;;;;4140792;28;20063;-47
2023/07/13 01:32:56;;;;;;;;;;;24.10;59.70;;;;;;4168610;28;20400;-50
2023/07/13 01:35:39;;;;;;;;;;;24.00;59.00;;;;;;4154984;28;19940;-47
2023/07/13 01:38:23;;;;;;;;;;;24.00;59.00;;;;;;4170742;28;19931;-49
2023/07/13 01:41:04;;;;;;;;;;;24.00;59.00;;;;;;4171925;28;20730;-47
2023/07/13 01:43:45;;;;;;;;;;;24.00;59.10;;;;;;4155998;28;20395;-45
2023/07/13 01:46:26;;;;;;;;;;;24.00;59.20;;;;;;4162854;28;20386;-48
2023/07/13 01:49:07;;;;;;;;;;;24.00;59.20;;;;;;4174058;28;19931;-50
2023/07/13 01:51:47;;;;;;;;;;;24.00;59.20;;;;;;4172242;28;19936;-50
2023/07/13 01:54:29;;;;;;;;;;;24.00;59.30;;;;;;4173614;28;19931;-50
2023/07/13 01:57:10;;;;;;;;;;;23.90;60.00;;;;;;4171044;28;19936;-47
2023/07/13 01:59:51;;;;;;;;;;;24.00;59.40;;;;;;4157998;28;20280;-50
2023/07/13 02:02:32;;;;;;;;;;;24.00;59.60;;;;;;4174684;28;20486;-50
2023/07/13 02:05:13;;;;;;;;;;;23.90;60.40;;;;;;4173737;28;20482;-48
2023/07/13 02:07:55;;;;;;;;;;;23.90;59.70;;;;;;4169800;28;19952;-47
2023/07/13 02:10:37;;;;;;;;;;;23.90;59.80;;;;;;4173061;28;20035;-48
2023/07/13 02:13:21;;;;;;;;;;;23.90;59.80;;;;;;4172382;28;19931;-49
2023/07/13 02:16:02;;;;;;;;;;;23.90;59.90;;;;;;4172318;28;19931;-49
2023/07/13 02:18:43;;;;;;;;;;;23.90;60.00;;;;;;4173541;28;19932;-45
2023/07/13 02:21:24;;;;;;;;;;;23.90;60.10;;;;;;4172828;28;20062;-48
2023/07/13 02:24:05;;;;;;;;;;;23.90;60.30;;;;;;4171666;28;20033;-47
2023/07/13 02:26:47;;;;;;;;;;;23.80;60.20;;;;;;4186126;28;20302;-47
2023/07/13 02:29:28;;;;;;;;;;;23.80;61.20;;;;;;4176987;28;19991;-53
2023/07/13 02:32:09;;;;;;;;;;;23.80;60.30;;;;;;4156014;28;19932;-47
2023/07/13 02:34:49;;;;;;;;;;;23.80;60.40;;;;;;4155434;28;19936;-46
2023/07/13 02:37:30;;;;;;;;;;;23.80;60.50;;;;;;4156755;28;19951;-47
2023/07/13 02:40:11;;;;;;;;;;;23.80;60.50;;;;;;4154487;28;19933;-53
2023/07/13 02:42:53;;;;;;;;;;;23.80;60.60;;;;;;4156207;28;19936;-50
2023/07/13 02:45:34;;;;;;;;;;;23.80;61.60;;;;;;4158828;28;19932;-50
2023/07/13 02:48:15;;;;;;;;;;;23.80;60.70;;;;;;4171849;28;19935;-50
2023/07/13 02:50:56;;;;;;;;;;;23.80;60.80;;;;;;4172679;28;19931;-48
2023/07/13 02:53:37;;;;;;;;;;;23.80;60.80;;;;;;4160332;28;20058;-49
2023/07/13 02:56:19;;;;;;;;;;;23.80;60.90;;;;;;4172866;28;19932;-47
2023/07/13 02:59:02;;;;;;;;;;;23.80;60.90;;;;;;4182978;28;19931;-53
2023/07/13 03:01:43;;;;;;;;;;;23.80;62.00;;;;;;4171221;28;19951;-48
2023/07/13 03:04:24;;;;;;;;;;;23.80;61.20;;;;;;4171610;28;19981;-47
2023/07/13 03:07:05;;;;;;;;;;;23.80;61.20;;;;;;4174625;28;19930;-49
2023/07/13 03:09:49;;;;;;;;;;;23.70;62.10;;;;;;4187620;28;19931;-50
2023/07/13 03:12:31;;;;;;;;;;;23.70;61.30;;;;;;4186375;28;19934;-45
2023/07/13 03:15:13;;;;;;;;;;;23.70;61.30;;;;;;4171089;28;19978;-50
2023/07/13 03:17:56;;;;;;;;;;;23.70;62.30;;;;;;4138210;28;19932;-52
2023/07/13 03:20:37;;;;;;;;;;;23.70;61.50;;;;;;4138166;28;19936;-48
2023/07/13 03:23:18;;;;;;;;;;;23.70;61.50;;;;;;4154747;28;19932;-50
2023/07/13 03:26:03;;;;;;;;;;;23.70;61.50;;;;;;4159358;28;19932;-47
2023/07/13 03:28:45;;;;;;;;;;;23.70;61.60;;;;;;4170810;28;19931;-47
2023/07/13 03:31:34;;;;;;;;;;;23.70;61.60;;;;;;4171214;28;20295;-49
2023/07/13 03:34:21;;;;;;;;;;;23.70;61.80;;;;;;4172197;28;19935;-46
2023/07/13 03:37:02;;;;;;;;;;;23.70;61.80;;;;;;4170918;28;20417;-51
2023/07/13 03:39:43;;;;;;;;;;;23.70;62.80;;;;;;4170365;28;19948;-49
2023/07/13 03:42:24;;;;;;;;;;;23.70;61.90;;;;;;4168799;28;19932;-50
2023/07/13 03:45:06;;;;;;;;;;;23.60;61.90;;;;;;4168957;28;20347;-51
2023/07/13 03:47:48;;;;;;;;;;;23.60;62.10;;;;;;4155060;28;19935;-52
2023/07/13 03:50:30;;;;;;;;;;;23.60;62.10;;;;;;4142160;28;20023;-50
2023/07/13 03:53:11;;;;;;;;;;;23.60;62.10;;;;;;4142845;28;20280;-48
2023/07/13 03:55:52;;;;;;;;;;;23.60;62.20;;;;;;4171490;28;20447;-51
2023/07/13 03:58:34;;;;;;;;;;;23.60;62.20;;;;;;4171341;28;19935;-52
2023/07/13 04:01:24;;;;;;;;;;;23.60;62.20;;;;;;4169779;28;20022;-50
2023/07/13 04:04:06;;;;;;;;;;;23.60;62.30;;;;;;4180786;28;20398;-50
2023/07/13 04:06:47;;;;;;;;;;;23.60;62.30;;;;;;4185822;28;19971;-51
2023/07/13 04:09:28;;;;;;;;;;;23.60;62.30;;;;;;4173721;28;20668;-48
2023/07/13 04:12:09;;;;;;;;;;;23.60;62.50;;;;;;4170696;28;19936;-49
2023/07/13 04:14:50;;;;;;;;;;;23.50;62.40;;;;;;4171295;28;19931;-51
2023/07/13 04:17:30;;;;;;;;;;;23.60;62.50;;;;;;4151471;28;19936;-49
2023/07/13 04:20:13;;;;;;;;;;;23.50;62.50;;;;;;4153728;28;19935;-46
2023/07/13 04:22:54;;;;;;;;;;;23.60;62.70;;;;;;4142858;28;20387;-50
2023/07/13 04:25:37;;;;;;;;;;;23.50;62.80;;;;;;4160093;28;24219;-48
2023/07/13 04:28:18;;;;;;;;;;;23.50;62.80;;;;;;4167989;28;19932;-48
2023/07/13 04:30:59;;;;;;;;;;;23.50;62.80;;;;;;4169696;28;19931;-47
2023/07/13 04:33:39;;;;;;;;;;;23.50;62.80;;;;;;4170402;28;20098;-46
2023/07/13 04:36:22;;;;;;;;;;;23.50;63.00;;;;;;4170413;28;19931;-48
2023/07/13 04:39:02;;;;;;;;;;;23.50;63.30;;;;;;4154493;28;19997;-46
2023/07/13 04:41:43;;;;;;;;;;;23.50;63.40;;;;;;4154981;28;19988;-46
2023/07/13 04:44:24;;;;;;;;;;;23.60;63.50;;;;;;4167787;28;19986;-49
2023/07/13 04:47:05;;;;;;;;;;;23.60;63.40;;;;;;4163190;28;20025;-51
2023/07/13 04:49:46;;;;;;;;;;;23.60;64.40;;;;;;4170210;28;19931;-48
2023/07/13 04:52:28;;;;;;;;;;;23.60;63.60;;;;;;4154929;28;19936;-48
2023/07/13 04:55:09;;;;;;;;;;;23.60;63.50;;;;;;4153805;28;19936;-50
2023/07/13 04:57:51;;;;;;;;;;;23.60;64.50;;;;;;4154891;28;20030;-47
2023/07/13 05:00:32;;;;;;;;;;;23.60;63.70;;;;;;4154529;28;19933;-45
2023/07/13 05:03:12;;;;;;;;;;;23.60;63.70;;;;;;4167097;28;19947;-50
2023/07/13 05:05:57;;;;;;;;;;;23.60;63.80;;;;;;4169985;28;20022;-46
2023/07/13 05:08:39;;;;;;;;;;;23.60;63.80;;;;;;4171118;28;20031;-47
2023/07/13 05:11:20;;;;;;;;;;;23.60;63.90;;;;;;4170257;28;19979;-46
2023/07/13 05:14:01;;;;;;;;;;;23.60;64.80;;;;;;4170816;28;19931;-46
2023/07/13 05:16:42;;;;;;;;;;;23.70;64.00;;;;;;4173900;28;20287;-49
2023/07/13 05:19:23;;;;;;;;;;;23.70;64.00;;;;;;4170889;28;20302;-45
2023/07/13 05:22:04;;;;;;;;;;;23.70;64.10;;;;;;4165042;28;20498;-46
2023/07/13 05:24:46;;;;;;;;;;;23.70;64.10;;;;;;4174036;28;20021;-51
2023/07/13 05:27:26;;;;;;;;;;;23.70;64.00;;;;;;4174652;28;20104;-51
2023/07/13 05:30:10;;;;;;;;;;;23.70;65.00;;;;;;4173704;28;19932;-46
2023/07/13 05:32:51;;;;;;;;;;;23.80;64.00;;;;;;4164405;28;19936;-45
2023/07/13 05:35:32;;;;;;;;;;;23.90;64.00;;;;;;4156940;28;20259;-47
2023/07/13 05:38:13;;;;;;;;;;;23.90;64.70;;;;;;4157219;28;19940;-46
2023/07/13 05:40:56;;;;;;;;;;;23.90;63.70;;;;;;4156965;28;19936;-46
2023/07/13 05:43:36;;;;;;;;;;;24.00;63.60;;;;;;4153960;28;20463;-48
2023/07/13 05:46:17;;;;;;;;;;;24.00;63.60;;;;;;4158492;28;20005;-48
2023/07/13 05:48:58;;;;;;;;;;;24.10;63.50;;;;;;4164869;28;19979;-49
2023/07/13 05:51:38;;;;;;;;;;;24.10;63.30;;;;;;4157189;28;19936;-48
2023/07/13 05:54:19;;;;;;;;;;;24.10;63.10;;;;;;4155457;28;19933;-48
2023/07/13 05:57:01;;;;;;;;;;;24.20;62.90;;;;;;4156694;28;20276;-45
2023/07/13 05:59:42;;;;;;;;;;;24.20;62.80;;;;;;4156556;28;19971;-49
2023/07/13 06:02:23;;;;;;;;;;;24.20;62.60;;;;;;4155395;28;19967;-53
2023/07/13 06:05:05;;;;;;;;;;;24.20;62.60;;;;;;4155222;28;20004;-48
2023/07/13 06:07:46;;;;;;;;;;;24.20;62.70;;;;;;4167670;28;20021;-45
2023/07/13 06:10:27;;;;;;;;;;;24.30;62.70;;;;;;4163335;28;19947;-47
2023/07/13 06:13:09;;;;;;;;;;;24.30;62.70;;;;;;4166762;28;20318;-48
2023/07/13 06:15:50;;;;;;;;;;;24.30;62.60;;;;;;4156502;28;20019;-48
2023/07/13 06:18:32;;;;;;;;;;;24.30;62.50;;;;;;4156979;28;20296;-46
2023/07/13 06:21:15;;;;;;;;;;;24.30;62.40;;;;;;4162780;28;20294;-48
2023/07/13 06:23:55;;;;;;;;;;;24.40;62.40;;;;;;4169453;28;20009;-47
2023/07/13 06:26:36;;;;;;;;;;;24.40;62.20;;;;;;4171228;28;20292;-47
2023/07/13 06:29:18;;;;;;;;;;;24.40;63.00;;;;;;4172620;28;20086;-46
2023/07/13 06:31:59;;;;;;;;;;;24.50;62.00;;;;;;4171509;28;20002;-49
2023/07/13 06:34:40;;;;;;;;;;;24.50;61.80;;;;;;4171039;28;20449;-46
2023/07/13 06:37:22;;;;;;;;;;;24.50;61.80;;;;;;4171436;28;19935;-50
2023/07/13 06:40:03;;;;;;;;;;;24.50;61.80;;;;;;4170936;28;20391;-46
2023/07/13 06:42:44;;;;;;;;;;;24.60;61.80;;;;;;4156826;28;20026;-47
2023/07/13 06:45:27;;;;;;;;;;;24.60;61.60;;;;;;4156249;28;20367;-50
2023/07/13 06:48:07;;;;;;;;;;;24.60;61.50;;;;;;4176175;28;20078;-45
2023/07/13 06:50:49;;;;;;;;;;;24.70;61.50;;;;;;4171543;28;19936;-52
2023/07/13 06:53:30;;;;;;;;;;;24.70;61.40;;;;;;4172613;28;19935;-45
2023/07/13 06:56:11;;;;;;;;;;;24.60;61.30;;;;;;4173360;28;19952;-48
2023/07/13 06:58:52;;;;;;;;;;;24.70;61.30;;;;;;4188698;28;20088;-49
2023/07/13 07:01:34;;;;;;;;;;;24.70;61.20;;;;;;4164260;28;20058;-48
2023/07/13 07:04:14;;;;;;;;;;;24.70;61.20;;;;;;4156027;28;19932;-47
2023/07/13 07:06:55;;;;;;;;;;;24.80;61.10;;;;;;4170163;28;19932;-49
2023/07/13 07:09:39;;;;;;;;;;;24.70;60.80;;;;;;4188128;28;19935;-46
2023/07/13 07:12:20;;;;;;;;;;;24.80;60.70;;;;;;4183056;28;19960;-50
2023/07/13 07:15:01;;;;;;;;;;;24.90;60.50;;;;;;4172285;28;19932;-50
2023/07/13 07:17:43;;;;;;;;;;;24.90;60.30;;;;;;4172194;28;19932;-47
2023/07/13 07:20:24;;;;;;;;;;;25.00;60.00;;;;;;4156068;28;21180;-46
2023/07/13 07:23:05;;;;;;;;;;;25.00;59.60;;;;;;4159690;28;19951;-48
2023/07/13 07:25:46;;;;;;;;;;;25.00;60.10;;;;;;4171616;28;19936;-49
2023/07/13 07:28:28;;;;;;;;;;;25.00;59.10;;;;;;4156225;28;20315;-47
2023/07/13 07:31:22;;;;;;;;;;;25.00;58.90;;;;;;4154728;28;20071;-48
2023/07/13 07:34:07;;;;;;;;;;;25.00;58.90;;;;;;4155749;28;19931;-46
2023/07/13 07:36:48;;;;;;;;;;;25.00;58.80;;;;;;4154576;28;19932;-47
2023/07/13 07:39:31;;;;;;;;;;;25.00;58.80;;;;;;4154699;28;19933;-46
2023/07/13 07:42:13;;;;;;;;;;;25.00;58.80;;;;;;4155169;28;20398;-51
2023/07/13 07:44:54;;;;;;;;;;;25.00;58.80;;;;;;4155930;28;19936;-48
2023/07/13 07:47:35;;;;;;;;;;;24.90;58.80;;;;;;4155328;28;20411;-48
2023/07/13 07:50:19;;;;;;;;;;;24.90;58.90;;;;;;4168694;28;20291;-44
2023/07/13 07:53:02;;;;;;;;;;;24.80;59.00;;;;;;4160917;28;19932;-49
2023/07/13 07:55:43;;;;;;;;;;;24.80;59.20;;;;;;4155028;28;19936;-47
2023/07/13 07:58:26;;;;;;;;;;;24.70;59.20;;;;;;4166158;28;19935;-48
2023/07/13 08:01:10;;;;;;;;;;;24.70;59.40;;;;;;4171564;28;19939;-46
2023/07/13 08:03:54;;;;;;;;;;;24.60;59.50;;;;;;4171927;28;19936;-52
2023/07/13 08:06:39;;;;;;;;;;;24.60;59.80;;;;;;4159965;28;19983;-50
2023/07/13 08:09:24;;;;;;;;;;;24.60;60.00;;;;;;4181216;28;19931;-48
2023/07/13 08:12:06;;;;;;;;;;;24.50;60.30;;;;;;4188187;28;20302;-50
2023/07/13 08:14:53;;;;;;;;;;;24.50;60.50;;;;;;4174588;28;19932;-46
2023/07/13 08:17:34;;;;;;;;;;;24.50;60.70;;;;;;4179881;28;19973;-49
2023/07/13 08:20:14;;;;;;;;;;;24.50;61.00;;;;;;4162764;28;19936;-47
2023/07/13 08:22:56;;;;;;;;;;;24.40;61.30;;;;;;4171616;28;19931;-50
2023/07/13 08:25:37;;;;;;;;;;;24.40;61.50;;;;;;4171629;28;20303;-50
2023/07/13 08:28:18;;;;;;;;;;;24.40;62.60;;;;;;4170118;28;20383;-52
2023/07/13 08:31:01;;;;;;;;;;;24.40;61.60;;;;;;4171685;28;19947;-50
2023/07/13 08:33:41;;;;;;;;;;;24.40;61.40;;;;;;4155198;28;20003;-50
2023/07/13 08:36:22;;;;;;;;;;;24.40;61.00;;;;;;4154944;28;19932;-48
2023/07/13 08:39:04;;;;;;;;;;;24.30;60.60;;;;;;4154841;28;19952;-47
2023/07/13 08:41:46;;;;;;;;;;;24.30;60.20;;;;;;4155170;28;19936;-47
2023/07/13 08:44:32;;;;;;;;;;;24.30;59.90;;;;;;4154029;28;19932;-45
2023/07/13 08:47:14;;;;;;;;;;;24.30;59.70;;;;;;4171000;28;20330;-46
2023/07/13 08:49:56;;;;;;;;;;;24.30;60.40;;;;;;4172374;28;20054;-49
2023/07/13 08:52:38;;;;;;;;;;;24.30;59.50;;;;;;4174303;28;20102;-48
2023/07/13 08:55:22;;;;;;;;;;;24.30;60.30;;;;;;4174548;28;19936;-47
2023/07/13 08:58:04;;;;;;;;;;;24.40;59.50;;;;;;4158333;28;19936;-52
2023/07/13 09:00:47;;;;;;;;;;;24.40;59.40;;;;;;4157762;28;20075;-49
2023/07/13 09:03:31;;;;;;;;;;;24.40;59.30;;;;;;4157672;28;19948;-52
2023/07/13 09:06:14;;;;;;;;;;;24.50;59.30;;;;;;4158229;28;19936;-54
2023/07/13 09:08:58;;;;;;;;;;;24.50;59.40;;;;;;4158370;28;19931;-50
2023/07/13 09:11:46;;;;;;;;;;;24.50;59.60;;;;;;4154706;28;20308;-51
2023/07/13 09:14:42;;;;;;;;;;;24.50;59.60;;;;;;4153682;28;19935;-54
2023/07/13 09:17:25;;;;;;;;;;;24.50;59.60;;;;;;4148084;28;19955;-53
2023/07/13 09:20:11;;;;;;;;;;;24.60;59.50;;;;;;4155877;28;20455;-50
2023/07/13 09:22:52;;;;;;;;;;;24.60;59.50;;;;;;4169511;28;20405;-50
2023/07/13 09:25:34;;;;;;;;;;;24.60;60.10;;;;;;4174221;28;20042;-52
2023/07/13 09:28:19;;;;;;;;;;;24.60;59.20;;;;;;4176636;28;20394;-51
2023/07/13 09:31:02;;;;;;;;;;;24.60;59.10;;;;;;4182319;28;19932;-53
2023/07/13 09:33:43;;;;;;;;;;;24.60;59.10;;;;;;4157291;28;19960;-53
2023/07/13 09:36:25;;;;;;;;;;;24.60;59.30;;;;;;4161722;28;20075;-53
2023/07/13 09:39:11;;;;;;;;;;;24.60;60.10;;;;;;4156143;28;19932;-54
2023/07/13 09:41:55;;;;;;;;;;;24.50;59.30;;;;;;4156407;28;19995;-54
2023/07/13 09:44:38;;;;;;;;;;;24.50;60.20;;;;;;4157936;28;19951;-55
2023/07/13 09:47:20;;;;;;;;;;;24.50;59.90;;;;;;4157502;28;19933;-59
2023/07/13 09:50:02;;;;;;;;;;;24.50;60.20;;;;;;4157104;28;20295;-48
2023/07/13 09:52:44;;;;;;;;;;;24.50;60.20;;;;;;4157326;28;19952;-55
2023/07/13 09:55:26;;;;;;;;;;;24.50;59.90;;;;;;4163699;28;20391;-51
2023/07/13 09:58:10;;;;;;;;;;;24.50;59.40;;;;;;4172920;28;20387;-60
2023/07/13 10:00:59;;;;;;;;;;;24.50;59.60;;;;;;4173658;28;19936;-56
2023/07/13 10:03:52;;;;;;;;;;;24.50;59.40;;;;;;4154861;28;20002;-55
2023/07/13 10:06:32;;;;;;;;;;;24.50;59.30;;;;;;4155005;28;19940;-55
2023/07/13 10:09:15;;;;;;;;;;;24.50;59.30;;;;;;4160210;28;19936;-57
2023/07/13 10:11:57;;;;;;;;;;;24.50;59.30;;;;;;4177514;28;20303;-57
2023/07/13 10:14:39;;;;;;;;;;;24.50;59.50;;;;;;4190259;28;20021;-55
2023/07/13 10:17:26;;;;;;;;;;;24.40;59.50;;;;;;4178277;28;20280;-57
2023/07/13 10:20:12;;;;;;;;;;;24.40;59.70;;;;;;4179043;28;19932;-54
2023/07/13 10:22:55;;;;;;;;;;;24.40;59.90;;;;;;4188241;28;19935;-55
2023/07/13 10:25:39;;;;;;;;;;;24.40;60.30;;;;;;4170988;28;19970;-53
2023/07/13 10:28:25;;;;;;;;;;;24.40;61.40;;;;;;4173004;28;20013;-57
2023/07/13 10:31:10;;;;;;;;;;;24.30;60.60;;;;;;4156678;28;19948;-51
2023/07/13 10:33:52;;;;;;;;;;;24.30;60.90;;;;;;4156817;28;19931;-52
2023/07/13 10:36:35;;;;;;;;;;;24.30;61.20;;;;;;4156786;28;19932;-49
2023/07/13 10:39:18;;;;;;;;;;;24.30;62.30;;;;;;4168618;28;19936;-52
2023/07/13 10:42:00;;;;;;;;;;;24.30;61.50;;;;;;4189894;28;19932;-50
2023/07/13 10:44:40;;;;;;;;;;;24.20;61.60;;;;;;4189685;28;20013;-48
2023/07/13 10:47:21;;;;;;;;;;;24.20;61.60;;;;;;4189351;28;19935;-48
2023/07/13 10:50:04;;;;;;;;;;;24.20;61.70;;;;;;4175136;28;19936;-52
2023/07/13 10:52:47;;;;;;;;;;;24.20;61.80;;;;;;4169155;28;19931;-48
2023/07/13 10:55:32;;;;;;;;;;;24.20;61.80;;;;;;4174698;28;19955;-51
2023/07/13 10:58:14;;;;;;;;;;;24.30;61.90;;;;;;4172841;28;19932;-48
2023/07/13 11:00:58;;;;;;;;;;;24.30;62.10;;;;;;4163166;28;19936;-55
2023/07/13 11:03:50;;;;;;;;;;;24.30;62.10;;;;;;4172459;28;20352;-56
2023/07/13 11:06:36;;;;;;;;;;;24.20;62.20;;;;;;4189032;28;19939;-55
2023/07/13 11:09:31;;;;;;;;;;;24.20;62.20;;;;;;4189113;28;20009;-54
2023/07/13 11:12:27;;;;;;;;;;;24.20;62.10;;;;;;4188287;28;19936;-55
2023/07/13 11:15:11;;;;;;;;;;;24.20;62.20;;;;;;4160819;28;20322;-50
2023/07/13 11:17:58;;;;;;;;;;;24.20;63.10;;;;;;4155086;28;20378;-55
2023/07/13 11:20:40;;;;;;;;;;;24.20;62.30;;;;;;4155147;28;20026;-50
2023/07/13 11:23:30;;;;;;;;;;;24.30;62.60;;;;;;4154760;28;20007;-55
2023/07/13 11:26:27;;;;;;;;;;;24.30;63.00;;;;;;4177657;28;19932;-45
2023/07/13 11:29:24;;;;;;;;;;;24.30;63.50;;;;;;4185841;28;19931;-44
2023/07/13 11:32:22;;;;;;;;;;;24.30;62.50;;;;;;4154349;28;20383;-46
2023/07/13 11:35:03;;;;;;;;;;;24.40;61.90;;;;;;4155612;28;19932;-47
2023/07/13 11:37:45;;;;;;;;;;;24.40;61.60;;;;;;4153806;28;20427;-49
2023/07/13 11:40:29;;;;;;;;;;;24.40;61.40;;;;;;4155548;28;19948;-48
2023/07/13 11:43:13;;;;;;;;;;;24.40;61.20;;;;;;4169399;28;19931;-48
2023/07/13 11:45:54;;;;;;;;;;;24.50;61.20;;;;;;4164542;28;20391;-48
2023/07/13 11:48:36;;;;;;;;;;;24.50;60.70;;;;;;4180410;28;19931;-43
2023/07/13 11:51:21;;;;;;;;;;;24.50;60.80;;;;;;4156411;28;19955;-47
2023/07/13 11:54:04;;;;;;;;;;;24.50;61.00;;;;;;4154868;28;20291;-45
2023/07/13 11:56:46;;;;;;;;;;;24.60;60.90;;;;;;4170543;28;19939;-46
2023/07/13 11:59:28;;;;;;;;;;;24.60;61.40;;;;;;4176677;28;20033;-47
2023/07/13 12:02:16;;;;;;;;;;;24.60;59.80;;;;;;4171797;28;19935;-47
2023/07/13 12:04:57;;;;;;;;;;;24.60;59.70;;;;;;4187056;28;19931;-45
2023/07/13 12:07:38;;;;;;;;;;;24.60;59.60;;;;;;4188045;28;19935;-43
2023/07/13 12:10:21;;;;;;;;;;;24.70;59.50;;;;;;4163136;28;19936;-46
2023/07/13 12:13:04;;;;;;;;;;;24.70;59.50;;;;;;4155523;28;19931;-46
2023/07/13 12:15:46;;;;;;;;;;;24.70;59.50;;;;;;4179758;28;20009;-43
2023/07/13 12:18:30;;;;;;;;;;;24.70;59.10;;;;;;4186941;28;19931;-45
2023/07/13 12:21:13;;;;;;;;;;;24.80;58.20;;;;;;4174436;28;19932;-43
2023/07/13 12:23:55;;;;;;;;;;;24.80;58.20;;;;;;4167335;28;20003;-46
2023/07/13 12:26:36;;;;;;;;;;;24.80;57.70;;;;;;4171246;28;19932;-43
2023/07/13 12:29:18;;;;;;;;;;;24.80;57.50;;;;;;4169469;28;20384;-42
2023/07/13 12:31:59;;;;;;;;;;;24.80;57.30;;;;;;4167904;28;19932;-46
2023/07/13 12:34:52;;;;;;;;;;;24.80;57.20;;;;;;4171454;28;19932;-43
2023/07/13 12:37:35;;;;;;;;;;;24.90;57.00;;;;;;4169410;28;20391;-45
2023/07/13 12:40:18;;;;;;;;;;;24.90;57.00;;;;;;4153737;28;19932;-48
2023/07/13 12:42:59;;;;;;;;;;;24.90;56.90;;;;;;4181428;28;20370;-46
2023/07/13 12:45:55;;;;;;;;;;;24.90;56.60;;;;;;4154181;28;19984;-54
2023/07/13 12:48:39;;;;;;;;;;;24.90;56.50;;;;;;4156131;28;19940;-48
2023/07/13 12:51:28;;;;;;;;;;;24.90;56.50;;;;;;4171738;28;19931;-47
2023/07/13 12:54:14;;;;;;;;;;;24.80;56.30;;;;;;4170927;28;19936;-48
2023/07/13 12:56:57;;;;;;;;;;;24.90;55.70;;;;;;4171336;28;20382;-44
2023/07/13 12:59:37;;;;;;;;;;;24.80;56.40;;;;;;4171377;28;19947;-42
2023/07/13 13:02:27;;;;;;;;;;;24.80;55.60;;;;;;4182194;28;19981;-43
2023/07/13 13:05:14;;;;;;;;;;;24.80;55.80;;;;;;4164432;28;19931;-43
2023/07/13 13:07:54;;;;;;;;;;;24.80;55.90;;;;;;4171413;28;19932;-45
2023/07/13 13:10:36;;;;;;;;;;;24.70;55.90;;;;;;4169976;28;19939;-48
2023/07/13 13:13:17;;;;;;;;;;;24.80;55.90;;;;;;4165440;28;19952;-43
2023/07/13 13:16:02;;;;;;;;;;;24.80;55.70;;;;;;4154560;28;19932;-46
2023/07/13 13:18:44;;;;;;;;;;;24.70;55.70;;;;;;4152021;28;19933;-45
2023/07/13 13:21:26;;;;;;;;;;;24.70;55.60;;;;;;4154131;28;19948;-42
2023/07/13 13:24:11;;;;;;;;;;;24.70;55.50;;;;;;4170044;28;19996;-47
2023/07/13 13:26:53;;;;;;;;;;;24.80;55.70;;;;;;4178010;28;20678;-45
2023/07/13 13:29:34;;;;;;;;;;;24.80;55.70;;;;;;4154790;28;19932;-46
2023/07/13 13:32:15;;;;;;;;;;;24.80;55.60;;;;;;4153641;28;20015;-48
2023/07/13 13:34:57;;;;;;;;;;;24.80;55.80;;;;;;4154498;28;19967;-45
2023/07/13 13:37:38;;;;;;;;;;;24.70;55.80;;;;;;4157607;28;19936;-44
2023/07/13 13:40:20;;;;;;;;;;;24.80;55.90;;;;;;4157779;28;19932;-46
2023/07/13 13:43:00;;;;;;;;;;;24.80;55.90;;;;;;4157274;28;20023;-44
2023/07/13 13:45:42;;;;;;;;;;;24.80;56.60;;;;;;4155341;28;20457;-45
2023/07/13 13:48:30;;;;;;;;;;;24.80;55.90;;;;;;4177746;28;19935;-44
2023/07/13 13:51:16;;;;;;;;;;;24.80;55.90;;;;;;4173231;28;19936;-45
2023/07/13 13:53:57;;;;;;;;;;;24.80;56.50;;;;;;4162119;28;20060;-46
2023/07/13 13:56:38;;;;;;;;;;;24.80;55.80;;;;;;4162496;28;19978;-46
2023/07/13 13:59:20;;;;;;;;;;;24.80;55.60;;;;;;4173729;28;20296;-44
2023/07/13 14:02:00;;;;;;;;;;;24.80;55.60;;;;;;4164367;28;19931;-45
2023/07/13 14:04:41;;;;;;;;;;;24.80;56.20;;;;;;4158803;28;19932;-49
2023/07/13 14:07:24;;;;;;;;;;;24.80;55.40;;;;;;4157330;28;20283;-46
2023/07/13 14:10:10;;;;;;;;;;;24.90;55.40;;;;;;4156776;28;20359;-48
2023/07/13 14:12:52;;;;;;;;;;;24.90;56.00;;;;;;4157904;28;20299;-45
2023/07/13 14:15:33;;;;;;;;;;;24.90;55.40;;;;;;4157092;28;20370;-45
2023/07/13 14:18:17;;;;;;;;;;;24.90;55.50;;;;;;4157203;28;19931;-47
2023/07/13 14:20:58;;;;;;;;;;;24.90;55.40;;;;;;4156896;28;19935;-45
2023/07/13 14:23:41;;;;;;;;;;;24.90;55.50;;;;;;4168069;28;20025;-47
2023/07/13 14:26:23;;;;;;;;;;;24.90;55.60;;;;;;4184852;28;19936;-42
2023/07/13 14:29:06;;;;;;;;;;;24.90;55.40;;;;;;4164066;28;20018;-43
2023/07/13 14:31:47;;;;;;;;;;;24.90;55.60;;;;;;4173765;28;19932;-46
2023/07/13 14:34:28;;;;;;;;;;;24.90;55.60;;;;;;4164921;28;19935;-46
2023/07/13 14:37:13;;;;;;;;;;;24.90;55.70;;;;;;4160670;28;19933;-43
2023/07/13 14:39:55;;;;;;;;;;;24.90;56.40;;;;;;4156824;28;19931;-45
2023/07/13 14:42:36;;;;;;;;;;;24.90;55.70;;;;;;4156448;28;19935;-43
2023/07/13 14:45:18;;;;;;;;;;;24.90;55.80;;;;;;4166694;28;19959;-46
2023/07/13 14:47:59;;;;;;;;;;;24.90;55.80;;;;;;4157309;28;20346;-42
2023/07/13 14:50:41;;;;;;;;;;;25.00;55.90;;;;;;4166886;28;19931;-46
2023/07/13 14:53:23;;;;;;;;;;;25.00;55.90;;;;;;4173139;28;20550;-48
2023/07/13 14:56:09;;;;;;;;;;;25.00;55.60;;;;;;4172423;28;19931;-43
2023/07/13 14:58:52;;;;;;;;;;;25.00;55.60;;;;;;4172187;28;19932;-48
2023/07/13 15:01:34;;;;;;;;;;;25.00;55.70;;;;;;4172711;28;19936;-48
2023/07/13 15:04:15;;;;;;;;;;;25.00;55.60;;;;;;4157663;28;20304;-44
2023/07/13 15:06:56;;;;;;;;;;;24.90;55.60;;;;;;4156109;28;20390;-45
2023/07/13 15:09:37;;;;;;;;;;;25.00;55.70;;;;;;4155810;28;20334;-45
2023/07/13 15:12:19;;;;;;;;;;;25.00;55.70;;;;;;4155434;28;19933;-44
2023/07/13 15:15:00;;;;;;;;;;;25.00;56.40;;;;;;4155792;28;20022;-43
2023/07/13 15:17:42;;;;;;;;;;;24.90;55.50;;;;;;4158930;28;19936;-46
2023/07/13 15:20:26;;;;;;;;;;;24.90;55.50;;;;;;4172320;28;19932;-47
2023/07/13 15:23:06;;;;;;;;;;;24.90;56.20;;;;;;4170317;28;19931;-44
2023/07/13 15:25:47;;;;;;;;;;;24.90;55.60;;;;;;4159163;28;19932;-48
2023/07/13 15:28:30;;;;;;;;;;;24.90;55.70;;;;;;4154435;28;19936;-44
2023/07/13 15:31:19;;;;;;;;;;;24.90;55.80;;;;;;4155841;28;20294;-47
2023/07/13 15:34:00;;;;;;;;;;;24.90;55.90;;;;;;4156121;28;19978;-45
2023/07/13 15:36:41;;;;;;;;;;;24.90;55.90;;;;;;4162253;28;20010;-43
2023/07/13 15:39:22;;;;;;;;;;;24.90;56.00;;;;;;4155226;28;20376;-44
2023/07/13 15:42:04;;;;;;;;;;;24.90;56.00;;;;;;4160376;28;19974;-44
2023/07/13 15:44:46;;;;;;;;;;;24.90;56.00;;;;;;4161718;28;20442;-44